createdAt,value
2022-09-10T00:01:18.527Z,25.16
2022-09-10T00:03:45.741Z,25.18
2022-09-10T00:06:12.953Z,25.19
2022-09-10T00:08:40.456Z,25.18
2022-09-10T00:11:10.156Z,25.17
2022-09-10T00:13:39.828Z,25.15
2022-09-10T00:16:13.443Z,25.11
2022-09-10T00:18:40.954Z,25.11
2022-09-10T00:21:12.263Z,25.08
2022-09-10T00:23:40.040Z,25.03
2022-09-10T00:26:15.361Z,25.02
2022-09-10T00:28:43.552Z,25.04
2022-09-10T00:31:11.421Z,25.04
2022-09-10T00:33:38.590Z,25.08
2022-09-10T00:36:15.257Z,25.09
2022-09-10T00:38:42.515Z,25.04
2022-09-10T00:41:09.694Z,24.98
2022-09-10T00:43:50.426Z,24.99
2022-09-10T00:46:24.656Z,24.99
2022-09-10T00:48:52.901Z,24.97
2022-09-10T00:51:21.277Z,24.95
2022-09-10T00:53:49.875Z,24.96
2022-09-10T00:56:17.285Z,24.96
2022-09-10T00:58:46.498Z,24.99
2022-09-10T01:01:13.922Z,24.98
2022-09-10T01:03:42.741Z,24.99
2022-09-10T01:06:10.969Z,24.97
2022-09-10T01:08:38.207Z,24.93
2022-09-10T01:11:23.610Z,24.93
2022-09-10T01:14:10.295Z,24.95
2022-09-10T01:16:46.405Z,24.96
2022-09-10T01:19:35.180Z,24.98
2022-09-10T01:22:32.868Z,24.97
2022-09-10T01:25:12.444Z,24.95
2022-09-10T01:27:47.972Z,24.98
2022-09-10T01:30:18.906Z,24.97
2022-09-10T01:33:11.343Z,24.94
2022-09-10T01:35:44.936Z,24.88
2022-09-10T01:38:23.885Z,24.84
2022-09-10T01:40:53.236Z,24.79
2022-09-10T01:43:20.408Z,24.77
2022-09-10T01:46:21.875Z,24.73
2022-09-10T01:49:29.111Z,24.69
2022-09-10T01:52:46.907Z,24.65
2022-09-10T01:55:22.819Z,24.61
2022-09-10T01:58:12.429Z,24.58
2022-09-10T02:00:46.059Z,24.57
2022-09-10T02:03:16.596Z,24.57
2022-09-10T02:05:45.953Z,24.59
2022-09-10T02:08:20.637Z,24.55
2022-09-10T02:10:58.994Z,24.57
2022-09-10T02:13:28.269Z,24.60
2022-09-10T02:15:56.918Z,24.63
2022-09-10T02:18:25.839Z,24.65
2022-09-10T02:20:58.435Z,24.68
2022-09-10T02:23:32.533Z,24.72
2022-09-10T02:25:59.684Z,24.73
2022-09-10T02:28:27.117Z,24.72
2022-09-10T02:30:55.509Z,24.70
2022-09-10T02:33:22.616Z,24.70
2022-09-10T02:35:50.250Z,24.71
2022-09-10T02:38:18.551Z,24.72
2022-09-10T02:40:49.650Z,24.73
2022-09-10T02:43:17.834Z,24.74
2022-09-10T02:45:45.295Z,24.73
2022-09-10T02:48:12.963Z,24.71
2022-09-10T02:50:40.330Z,24.72
2022-09-10T02:53:07.375Z,24.73
2022-09-10T02:55:34.612Z,24.78
2022-09-10T02:58:02.054Z,24.78
2022-09-10T03:00:29.301Z,24.76
2022-09-10T03:03:00.846Z,24.75
2022-09-10T03:05:29.553Z,24.73
2022-09-10T03:07:57.561Z,24.72
2022-09-10T03:10:27.192Z,24.73
2022-09-10T03:12:54.682Z,24.70
2022-09-10T03:15:23.287Z,24.69
2022-09-10T03:17:51.276Z,24.69
2022-09-10T03:20:18.613Z,24.67
2022-09-10T03:22:46.595Z,24.66
2022-09-10T03:25:13.685Z,24.65
2022-09-10T03:27:40.808Z,24.65
2022-09-10T03:30:08.702Z,24.66
2022-09-10T03:32:35.754Z,24.64
2022-09-10T03:35:02.879Z,24.63
2022-09-10T03:37:31.637Z,24.64
2022-09-10T03:39:59.176Z,24.65
2022-09-10T03:42:26.373Z,24.69
2022-09-10T03:44:53.386Z,24.72
2022-09-10T03:47:20.445Z,24.72
2022-09-10T03:49:47.567Z,24.71
2022-09-10T03:52:14.604Z,24.71
2022-09-10T03:54:41.726Z,24.72
2022-09-10T03:57:08.940Z,24.74
2022-09-10T03:59:35.957Z,24.75
2022-09-10T04:02:03.453Z,24.76
2022-09-10T04:04:32.235Z,24.79
2022-09-10T04:06:59.341Z,24.81
2022-09-10T04:09:26.385Z,24.79
2022-09-10T04:11:53.508Z,24.78
2022-09-10T04:14:20.546Z,24.80
2022-09-10T04:16:47.606Z,24.80
2022-09-10T04:19:14.766Z,24.80
2022-09-10T04:21:41.890Z,24.80
2022-09-10T04:24:14.872Z,24.80
2022-09-10T04:26:42.198Z,24.79
2022-09-10T04:29:09.218Z,24.76
2022-09-10T04:31:36.364Z,24.73
2022-09-10T04:34:03.509Z,24.73
2022-09-10T04:36:30.603Z,24.74
2022-09-10T04:38:58.592Z,24.73
2022-09-10T04:41:25.674Z,24.72
2022-09-10T04:43:52.726Z,24.69
2022-09-10T04:46:19.867Z,24.69
2022-09-10T04:48:47.414Z,24.72
2022-09-10T04:51:16.775Z,24.76
2022-09-10T04:53:46.238Z,24.79
2022-09-10T04:56:13.724Z,24.80
2022-09-10T04:58:41.676Z,24.80
2022-09-10T05:01:09.181Z,24.83
2022-09-10T05:03:36.539Z,24.82
2022-09-10T05:06:05.313Z,24.80
2022-09-10T05:08:32.720Z,24.82
2022-09-10T05:11:01.517Z,24.84
2022-09-10T05:13:31.387Z,24.80
2022-09-10T05:16:01.942Z,24.78
2022-09-10T05:18:29.022Z,24.77
2022-09-10T05:20:56.163Z,24.76
2022-09-10T05:23:23.356Z,24.76
2022-09-10T05:25:50.390Z,24.75
2022-09-10T05:28:17.754Z,24.76
2022-09-10T05:30:51.239Z,24.77
2022-09-10T05:33:18.742Z,24.77
2022-09-10T05:35:48.452Z,24.80
2022-09-10T05:38:15.508Z,24.80
2022-09-10T05:40:43.171Z,24.79
2022-09-10T05:43:12.305Z,24.80
2022-09-10T05:45:39.385Z,24.80
2022-09-10T05:48:06.730Z,24.78
2022-09-10T05:50:33.808Z,24.71
2022-09-10T05:53:01.477Z,24.67
2022-09-10T05:55:30.815Z,24.64
2022-09-10T05:57:58.786Z,24.61
2022-09-10T06:00:25.895Z,24.58
2022-09-10T06:02:53.646Z,24.62
2022-09-10T06:05:23.526Z,24.61
2022-09-10T06:07:51.171Z,24.62
2022-09-10T06:10:18.890Z,24.54
2022-09-10T06:12:51.456Z,24.50
2022-09-10T06:15:20.000Z,24.46
2022-09-10T06:17:47.161Z,24.44
2022-09-10T06:20:14.337Z,24.43
2022-09-10T06:22:41.577Z,24.49
2022-09-10T06:25:09.216Z,24.51
2022-09-10T06:27:36.253Z,24.54
2022-09-10T06:30:03.418Z,24.55
2022-09-10T06:32:32.504Z,24.56
2022-09-10T06:34:59.579Z,24.57
2022-09-10T06:37:27.321Z,24.56
2022-09-10T06:39:54.456Z,24.57
2022-09-10T06:42:21.536Z,24.59
2022-09-10T06:44:48.778Z,24.61
2022-09-10T06:48:18.832Z,24.58
2022-09-10T06:50:03.061Z,24.56
2022-09-10T06:52:30.116Z,24.54
2022-09-10T06:54:57.128Z,24.52
2022-09-10T06:57:27.134Z,24.48
2022-09-10T06:59:54.282Z,24.49
2022-09-10T07:02:21.388Z,24.49
2022-09-10T07:04:48.540Z,24.49
2022-09-10T07:07:15.944Z,24.51
2022-09-10T07:09:43.560Z,24.51
2022-09-10T07:12:10.564Z,24.54
2022-09-10T07:14:37.964Z,24.54
2022-09-10T07:17:05.028Z,24.59
2022-09-10T07:19:33.629Z,24.61
2022-09-10T07:22:01.642Z,24.64
2022-09-10T07:24:28.893Z,24.66
2022-09-10T07:26:57.310Z,24.66
2022-09-10T07:29:24.484Z,24.69
2022-09-10T07:31:51.578Z,24.71
2022-09-10T07:34:18.632Z,24.77
2022-09-10T07:36:45.775Z,24.80
2022-09-10T07:39:12.871Z,24.87
2022-09-10T07:41:39.867Z,24.93
2022-09-10T07:44:07.043Z,25.00
2022-09-10T07:46:34.236Z,25.04
2022-09-10T07:49:02.199Z,25.04
2022-09-10T07:51:32.763Z,25.07
2022-09-10T07:54:00.289Z,25.09
2022-09-10T07:56:27.534Z,25.14
2022-09-10T07:58:57.308Z,25.17
2022-09-10T08:01:24.589Z,25.21
2022-09-10T08:03:52.012Z,25.22
2022-09-10T08:06:20.049Z,25.25
2022-09-10T08:08:47.098Z,25.27
2022-09-10T08:11:18.095Z,25.30
2022-09-10T08:13:50.804Z,25.33
2022-09-10T08:16:25.632Z,25.37
2022-09-10T08:18:55.914Z,25.42
2022-09-10T08:21:23.339Z,25.47
2022-09-10T08:23:51.972Z,25.47
2022-09-10T08:26:19.338Z,25.52
2022-09-10T08:28:47.661Z,25.59
2022-09-10T08:31:14.824Z,25.57
2022-09-10T08:33:42.815Z,25.55
2022-09-10T08:36:12.422Z,25.62
2022-09-10T08:38:40.331Z,25.63
2022-09-10T08:41:32.813Z,25.63
2022-09-10T08:44:31.953Z,25.64
2022-09-10T08:47:10.967Z,25.66
2022-09-10T08:50:13.598Z,25.67
2022-09-10T08:52:56.712Z,25.66
2022-09-10T08:55:34.669Z,25.70
2022-09-10T08:58:07.238Z,25.72
2022-09-10T09:00:39.418Z,25.82
2022-09-10T09:03:21.974Z,25.91
2022-09-10T09:05:54.602Z,25.91
2022-09-10T09:08:28.065Z,25.87
2022-09-10T09:11:04.441Z,25.82
2022-09-10T09:13:50.274Z,25.77
2022-09-10T09:16:44.928Z,25.71
2022-09-10T09:19:28.813Z,25.64
2022-09-10T09:21:56.578Z,25.67
2022-09-10T09:24:42.445Z,25.66
2022-09-10T09:27:15.093Z,25.67
2022-09-10T09:29:44.867Z,25.82
2022-09-10T09:32:16.534Z,25.92
2022-09-10T09:35:06.364Z,25.87
2022-09-10T09:37:35.067Z,25.82
2022-09-10T09:40:20.616Z,25.72
2022-09-10T09:42:50.729Z,25.68
2022-09-10T09:45:32.645Z,25.68
2022-09-10T09:48:00.108Z,25.74
2022-09-10T09:50:39.169Z,25.88
2022-09-10T09:53:06.202Z,25.93
2022-09-10T09:55:42.060Z,25.96
2022-09-10T09:58:21.440Z,26.01
2022-09-10T10:00:54.449Z,26.03
2022-09-10T10:03:30.103Z,25.98
2022-09-10T10:06:08.411Z,26.11
2022-09-10T10:08:40.282Z,26.13
2022-09-10T10:11:08.671Z,26.22
2022-09-10T10:13:39.419Z,26.31
2022-09-10T10:16:35.982Z,26.40
2022-09-10T10:19:04.013Z,26.44
2022-09-10T10:21:33.766Z,26.49
2022-09-10T10:24:01.441Z,26.45
2022-09-10T10:26:36.129Z,26.49
2022-09-10T10:29:19.347Z,26.45
2022-09-10T10:31:51.036Z,26.43
2022-09-10T10:34:45.803Z,26.51
2022-09-10T10:37:43.325Z,26.61
2022-09-10T10:40:13.758Z,26.71
2022-09-10T10:42:54.453Z,26.78
2022-09-10T10:45:55.136Z,26.78
2022-09-10T10:48:34.559Z,26.84
2022-09-10T10:51:40.713Z,26.96
2022-09-10T10:54:24.081Z,27.00
2022-09-10T10:57:03.936Z,27.04
2022-09-10T10:59:36.908Z,27.15
2022-09-10T11:02:30.068Z,27.23
2022-09-10T11:05:02.821Z,27.24
2022-09-10T11:07:33.709Z,27.30
2022-09-10T11:10:33.278Z,27.40
2022-09-10T11:13:09.811Z,27.50
2022-09-10T11:15:59.676Z,27.53
2022-09-10T11:18:34.710Z,27.38
2022-09-10T11:21:16.649Z,27.29
2022-09-10T11:24:09.272Z,27.21
2022-09-10T11:26:44.936Z,27.20
2022-09-10T11:29:19.920Z,27.33
2022-09-10T11:31:54.012Z,27.45
2022-09-10T11:34:49.633Z,27.61
2022-09-10T11:38:04.349Z,27.53
2022-09-10T11:41:00.781Z,27.57
2022-09-10T11:44:04.976Z,27.46
2022-09-10T11:47:00.374Z,27.56
2022-09-10T11:49:55.023Z,27.63
2022-09-10T11:52:26.018Z,27.68
2022-09-10T11:54:54.465Z,27.76
2022-09-10T11:57:30.341Z,27.83
2022-09-10T12:00:12.102Z,27.80
2022-09-10T12:02:57.801Z,27.83
2022-09-10T12:05:30.688Z,27.89
2022-09-10T12:08:04.253Z,27.92
2022-09-10T12:11:01.792Z,27.89
2022-09-10T12:13:28.949Z,27.87
2022-09-10T12:16:02.777Z,27.82
2022-09-10T12:18:42.894Z,27.75
2022-09-10T12:21:34.572Z,27.76
2022-09-10T12:24:21.529Z,27.77
2022-09-10T12:26:48.859Z,27.72
2022-09-10T12:29:45.411Z,27.83
2022-09-10T12:32:21.443Z,27.81
2022-09-10T12:35:08.961Z,27.77
2022-09-10T12:37:36.286Z,27.89
2022-09-10T12:40:25.539Z,27.91
2022-09-10T12:42:58.320Z,27.86
2022-09-10T12:46:03.465Z,27.96
2022-09-10T12:48:33.157Z,27.78
2022-09-10T12:51:00.950Z,27.91
2022-09-10T12:53:31.744Z,28.02
2022-09-10T12:56:15.843Z,28.11
2022-09-10T12:59:00.941Z,28.25
2022-09-10T13:01:40.912Z,28.40
2022-09-10T13:04:30.415Z,28.51
2022-09-10T13:07:01.852Z,28.50
2022-09-10T13:09:39.893Z,28.47
2022-09-10T13:12:20.189Z,28.44
2022-09-10T13:14:51.461Z,28.42
2022-09-10T13:17:51.809Z,28.42
2022-09-10T13:20:21.629Z,28.39
2022-09-10T13:23:01.943Z,28.35
2022-09-10T13:25:37.601Z,28.30
2022-09-10T13:28:37.314Z,28.22
2022-09-10T13:31:13.437Z,28.12
2022-09-10T13:33:52.611Z,28.06
2022-09-10T13:36:50.383Z,28.02
2022-09-10T13:39:34.739Z,27.97
2022-09-10T13:42:07.410Z,27.93
2022-09-10T13:44:46.693Z,27.87
2022-09-10T13:47:18.483Z,27.87
2022-09-10T13:49:51.937Z,27.88
2022-09-10T13:52:21.768Z,27.83
2022-09-10T13:55:00.025Z,27.79
2022-09-10T13:57:27.053Z,27.77
2022-09-10T14:00:20.282Z,27.79
2022-09-10T14:02:51.004Z,27.83
2022-09-10T14:05:26.957Z,27.86
2022-09-10T14:07:56.509Z,27.94
2022-09-10T14:10:24.617Z,28.05
2022-09-10T14:12:53.660Z,28.15
2022-09-10T14:15:25.129Z,28.20
2022-09-10T14:17:57.443Z,28.30
2022-09-10T14:20:27.806Z,28.28
2022-09-10T14:23:01.120Z,28.35
2022-09-10T14:25:34.391Z,28.37
2022-09-10T14:28:16.753Z,28.39
2022-09-10T14:30:44.947Z,28.43
2022-09-10T14:33:35.729Z,28.53
2022-09-10T14:36:23.738Z,28.57
2022-09-10T14:39:23.204Z,28.57
2022-09-10T14:42:08.160Z,28.53
2022-09-10T14:44:44.138Z,28.47
2022-09-10T14:47:11.186Z,28.39
2022-09-10T14:49:41.692Z,28.46
2022-09-10T14:52:12.157Z,28.55
2022-09-10T14:54:39.442Z,28.65
2022-09-10T14:57:15.753Z,29.01
2022-09-10T14:59:46.783Z,29.30
2022-09-10T15:02:16.472Z,29.35
2022-09-10T15:04:44.253Z,29.56
2022-09-10T15:07:12.346Z,29.71
2022-09-10T15:09:40.313Z,29.86
2022-09-10T15:12:31.940Z,29.98
2022-09-10T15:14:59.875Z,30.06
2022-09-10T15:17:27.442Z,30.10
2022-09-10T15:19:56.278Z,30.18
2022-09-10T15:22:26.538Z,30.26
2022-09-10T15:25:11.335Z,30.30
2022-09-10T15:27:38.817Z,30.30
2022-09-10T15:30:06.914Z,30.41
2022-09-10T15:32:34.056Z,30.45
2022-09-10T15:35:01.657Z,30.51
2022-09-10T15:37:28.674Z,30.56
2022-09-10T15:39:58.339Z,30.67
2022-09-10T15:42:25.586Z,30.80
2022-09-10T15:44:52.613Z,30.93
2022-09-10T15:47:19.751Z,30.97
2022-09-10T15:49:47.541Z,30.94
2022-09-10T15:52:14.645Z,30.94
2022-09-10T15:54:43.538Z,30.99
2022-09-10T15:57:10.657Z,31.01
2022-09-10T15:59:37.671Z,31.08
2022-09-10T16:02:05.551Z,31.19
2022-09-10T16:04:35.632Z,31.27
2022-09-10T16:07:03.796Z,31.35
2022-09-10T16:09:31.163Z,31.30
2022-09-10T16:11:58.295Z,31.34
2022-09-10T16:14:25.405Z,31.34
2022-09-10T16:16:53.995Z,31.43
2022-09-10T16:19:21.320Z,31.61
2022-09-10T16:21:48.624Z,31.80
2022-09-10T16:24:15.688Z,31.85
2022-09-10T16:26:44.344Z,31.90
2022-09-10T16:29:22.563Z,32.01
2022-09-10T16:31:50.543Z,32.03
2022-09-10T16:34:20.057Z,32.11
2022-09-10T16:36:51.858Z,32.15
2022-09-10T16:39:20.332Z,32.13
2022-09-10T16:41:49.091Z,32.24
2022-09-10T16:44:18.252Z,32.20
2022-09-10T16:46:47.404Z,32.17
2022-09-10T16:49:17.565Z,32.03
2022-09-10T16:51:46.520Z,31.91
2022-09-10T16:54:14.499Z,31.88
2022-09-10T16:56:46.158Z,31.96
2022-09-10T16:59:22.002Z,31.87
2022-09-10T17:01:50.451Z,31.78
2022-09-10T17:04:24.602Z,31.72
2022-09-10T17:06:53.451Z,31.62
2022-09-10T17:09:20.665Z,31.62
2022-09-10T17:11:47.742Z,31.70
2022-09-10T17:14:14.868Z,31.83
2022-09-10T17:16:43.759Z,31.87
2022-09-10T17:19:20.643Z,31.96
2022-09-10T17:21:51.570Z,31.97
2022-09-10T17:24:21.263Z,31.98
2022-09-10T17:26:48.973Z,31.90
2022-09-10T17:29:19.129Z,31.85
2022-09-10T17:31:47.407Z,31.81
2022-09-10T17:34:15.999Z,31.89
2022-09-10T17:36:46.606Z,31.97
2022-09-10T17:39:14.785Z,32.03
2022-09-10T17:41:42.788Z,31.95
2022-09-10T17:44:11.636Z,31.90
2022-09-10T17:46:38.977Z,31.94
2022-09-10T17:49:06.811Z,32.04
2022-09-10T17:51:35.167Z,32.08
2022-09-10T17:54:05.291Z,32.04
2022-09-10T17:56:32.470Z,31.97
2022-09-10T17:59:04.805Z,32.01
2022-09-10T18:01:36.514Z,32.08
2022-09-10T18:04:05.083Z,32.08
2022-09-10T18:06:35.899Z,32.10
2022-09-10T18:09:03.976Z,32.12
2022-09-10T18:11:33.714Z,32.18
2022-09-10T18:14:01.114Z,32.09
2022-09-10T18:16:31.513Z,32.07
2022-09-10T18:19:01.311Z,32.00
2022-09-10T18:21:31.596Z,31.87
2022-09-10T18:24:04.521Z,31.82
2022-09-10T18:26:34.193Z,31.68
2022-09-10T18:29:07.241Z,31.58
2022-09-10T18:31:37.497Z,31.28
2022-09-10T18:34:07.008Z,31.16
2022-09-10T18:36:35.047Z,30.90
2022-09-10T18:39:14.054Z,30.69
2022-09-10T18:41:43.072Z,30.61
2022-09-10T18:44:17.059Z,30.55
2022-09-10T18:46:45.948Z,30.51
2022-09-10T18:49:17.907Z,30.46
2022-09-10T18:51:48.496Z,30.32
2022-09-10T18:54:17.298Z,30.04
2022-09-10T18:56:45.587Z,29.77
2022-09-10T18:59:20.481Z,29.44
2022-09-10T19:01:48.774Z,29.20
2022-09-10T19:04:20.658Z,29.01
2022-09-10T19:06:49.089Z,28.85
2022-09-10T19:09:18.872Z,28.48
2022-09-10T19:11:49.229Z,28.08
2022-09-10T19:14:19.379Z,27.74
2022-09-10T19:16:48.014Z,27.56
2022-09-10T19:19:26.480Z,27.38
2022-09-10T19:21:59.920Z,27.24
2022-09-10T19:24:44.103Z,27.04
2022-09-10T19:27:15.885Z,26.79
2022-09-10T19:29:43.398Z,26.72
2022-09-10T19:32:27.025Z,26.65
2022-09-10T19:34:55.724Z,26.62
2022-09-10T19:37:22.822Z,26.63
2022-09-10T19:39:49.990Z,26.61
2022-09-10T19:42:17.650Z,26.63
2022-09-10T19:44:44.822Z,26.60
2022-09-10T19:47:12.464Z,26.64
2022-09-10T19:49:39.586Z,26.65
2022-09-10T19:52:06.650Z,26.61
2022-09-10T19:54:33.829Z,26.55
2022-09-10T19:57:00.881Z,26.50
2022-09-10T19:59:28.672Z,26.49
2022-09-10T20:01:55.984Z,26.37
2022-09-10T20:04:23.170Z,26.30
2022-09-10T20:06:50.679Z,26.22
2022-09-10T20:09:17.935Z,26.21
2022-09-10T20:11:45.400Z,26.24
2022-09-10T20:14:13.979Z,26.24
2022-09-10T20:16:43.474Z,26.25
2022-09-10T20:19:13.934Z,26.29
2022-09-10T20:21:42.570Z,26.32
2022-09-10T20:24:10.292Z,26.38
2022-09-10T20:26:38.614Z,26.42
2022-09-10T20:29:09.447Z,26.41
2022-09-10T20:31:37.575Z,26.38
2022-09-10T20:34:07.298Z,26.32
2022-09-10T20:36:36.044Z,26.26
2022-09-10T20:39:03.510Z,26.20
2022-09-10T20:41:30.807Z,26.19
2022-09-10T20:44:00.146Z,26.17
2022-09-10T20:46:29.939Z,26.18
2022-09-10T20:49:05.343Z,26.15
2022-09-10T20:51:37.569Z,26.12
2022-09-10T20:54:06.454Z,26.06
2022-09-10T20:56:33.946Z,26.02
2022-09-10T20:59:02.285Z,26.03
2022-09-10T21:01:33.780Z,26.05
2022-09-10T21:04:01.681Z,26.03
2022-09-10T21:06:31.507Z,26.00
2022-09-10T21:08:59.400Z,25.99
2022-09-10T21:11:29.520Z,26.00
2022-09-10T21:14:02.245Z,26.00
2022-09-10T21:16:31.692Z,26.06
2022-09-10T21:19:08.073Z,26.10
2022-09-10T21:21:36.554Z,26.15
2022-09-10T21:24:10.538Z,26.16
2022-09-10T21:26:39.867Z,26.20
2022-09-10T21:29:11.122Z,26.24
2022-09-10T21:31:38.996Z,26.25
2022-09-10T21:34:06.719Z,26.25
2022-09-10T21:36:37.035Z,26.26
2022-09-10T21:39:07.776Z,26.28
2022-09-10T21:41:38.365Z,26.33
2022-09-10T21:44:09.085Z,26.34
2022-09-10T21:46:36.533Z,26.35
2022-09-10T21:49:03.849Z,26.33
2022-09-10T21:51:31.151Z,26.31
2022-09-10T21:53:59.753Z,26.27
2022-09-10T21:56:29.822Z,26.26
2022-09-10T21:59:00.340Z,26.24
2022-09-10T22:01:30.411Z,26.24
2022-09-10T22:04:02.645Z,26.23
2022-09-10T22:06:32.440Z,26.19
2022-09-10T22:09:01.858Z,26.16
2022-09-10T22:11:32.610Z,26.14
2022-09-10T22:14:02.101Z,26.11
2022-09-10T22:16:31.540Z,26.12
2022-09-10T22:19:01.815Z,26.12
2022-09-10T22:21:29.674Z,26.13
2022-09-10T22:23:56.840Z,26.12
2022-09-10T22:26:28.524Z,26.12
2022-09-10T22:28:57.521Z,26.12
2022-09-10T22:31:29.602Z,26.14
2022-09-10T22:33:59.238Z,26.12
2022-09-10T22:36:31.336Z,26.09
2022-09-10T22:39:05.513Z,26.11
2022-09-10T22:41:34.915Z,26.07
2022-09-10T22:44:03.269Z,26.03
2022-09-10T22:46:31.255Z,26.01
2022-09-10T22:48:58.499Z,25.95
2022-09-10T22:51:31.357Z,25.92
2022-09-10T22:53:58.677Z,25.92
2022-09-10T22:56:27.617Z,25.89
2022-09-10T22:58:56.869Z,25.86
2022-09-10T23:01:34.904Z,25.86
2022-09-10T23:04:02.832Z,25.87
2022-09-10T23:06:32.202Z,25.87
2022-09-10T23:09:06.365Z,25.84
2022-09-10T23:11:34.819Z,25.85
2022-09-10T23:14:05.996Z,25.88
2022-09-10T23:16:35.912Z,25.92
2022-09-10T23:19:07.625Z,25.94
2022-09-10T23:21:36.059Z,25.96
2022-09-10T23:24:08.385Z,25.96
2022-09-10T23:26:35.494Z,25.96
2022-09-10T23:29:06.490Z,25.96
2022-09-10T23:31:36.411Z,25.94
2022-09-10T23:34:12.421Z,25.89
2022-09-10T23:36:42.190Z,25.89
2022-09-10T23:39:12.983Z,25.90
2022-09-10T23:41:40.557Z,25.89
2022-09-10T23:44:08.404Z,25.91
2022-09-10T23:46:36.566Z,25.89
2022-09-10T23:49:04.111Z,25.85
2022-09-10T23:51:32.370Z,25.78
2022-09-10T23:53:59.796Z,25.79
2022-09-10T23:56:28.752Z,25.80
2022-09-10T23:58:57.051Z,25.77
